Hagali, Minnesota
Current Conditions -  °F | °C
As of 7:53 AM on Wednesday 26 Nov 2014 (Local Time) from KBJI Reporting Station
Light Snow Light Snow  
Wind Chill: -3°   Ceiling: 1300
Heat Index:   Visibility: 1.7mi
Dew Point:   Wind: 7mph
Humidity: 85%   Direction: 350°N
Pressure: 30.22"   Gusts: NA
Location:  47.7615°N, 94.6741°W
Report Text: KBJI 261353Z AUTO 35006KT 1 3/4SM -SN BKN013 M13/M15 A3022 RMK AO2 T11321153
Loading
Personal Weather Stations






























Interactive Weather Map New forecast layout! Learn more

10-Day Weather Forecast

Advertisements
Track Severe Weather on mobile